Terminal Aerodrome Forecast
Issued by NWS

Home | Current Version | Previous Version | Text Only | Print | Product List | Glossary On
Versions: 1 2 3 4 5 6 7 8 9 10 11 12 13 14 15 16 17 18 19
000
FTUS46 KSGX 031905 AAA
TAFSNA
TAF AMD
KSNA 031905Z 0319/0418 21006KT P6SM SCT025 SCT030
     FM032000 22010G16KT P6SM FEW035
     FM040100 22007KT P6SM BKN035
     FM040400 VRB03KT P6SM OVC025=

USA.gov is the U.S. government's official web portal to all federal, state and local government web resources and services.